Wetterdaten: Woche 23.03.20 - 29.03.20 (KW13)
Datum Zeit Temp. Aussen Temp. o. S. Temp +5cm Feuchte Auss Luftdruck Regen Sonnenschein Regendauer Solar Windben Empfang
23.03.2020 00:00 3,2 C 2,3 C 1,7 C 58 % 1033,1 hPa 0,0 l/m 0,00 h 0,00 h 0 W/m 14,4 km/h (3 Bft) 92,81 %
23.03.2020 01:00 2,8 C 2,1 C 1,5 C 59 % 1033,2 hPa 0,0 l/m 0,00 h 0,00 h 0 W/m 23,9 km/h (4 Bft) 98,11 %
23.03.2020 02:00 2,4 C 1,7 C 1,1 C 60 % 1033,2 hPa 0,0 l/m 0,00 h 0,00 h 0 W/m 22,0 km/h (4 Bft) 95,82 %
23.03.2020 03:00 2,1 C 1,2 C 0,7 C 60 % 1033,2 hPa 0,0 l/m 0,00 h 0,00 h 0 W/m 24,1 km/h (4 Bft) 97,15 %
23.03.2020 04:00 1,6 C 0,8 C 0,3 C 59 % 1033,3 hPa 0,0 l/m 0,00 h 0,00 h 0 W/m 18,1 km/h (3 Bft) 95,35 %
23.03.2020 05:00 1,1 C 0,3 C -0,2 C 61 % 1033,5 hPa 0,0 l/m 0,00 h 0,00 h 0 W/m 20,2 km/h (4 Bft) 93,81 %
23.03.2020 06:00 0,7 C 0,0 C -0,6 C 61 % 1033,7 hPa 0,0 l/m 0,00 h 0,00 h 10 W/m 22,6 km/h (4 Bft) 98,71 %
23.03.2020 07:00 0,8 C 0,5 C -0,2 C 59 % 1033,9 hPa 0,0 l/m 0,00 h 0,00 h 28 W/m 24,7 km/h (4 Bft) 97,59 %
23.03.2020 08:00 1,8 C 2,4 C 0,9 C 55 % 1034,2 hPa 0,0 l/m 0,33 h 0,00 h 139 W/m 32,3 km/h (5 Bft) 92,26 %
23.03.2020 09:00 3,6 C 6,6 C 6,0 C 50 % 1034,2 hPa 0,0 l/m 1,00 h 0,00 h 463 W/m 32,1 km/h (5 Bft) 99,36 %
23.03.2020 10:00 5,2 C 8,7 C 4,2 C 44 % 1034,0 hPa 0,0 l/m 1,00 h 0,00 h 609 W/m 30,4 km/h (5 Bft) 97,30 %
23.03.2020 11:00 6,7 C 10,5 C 5,9 C 39 % 1033,8 hPa 0,0 l/m 1,00 h 0,00 h 702 W/m 25,1 km/h (4 Bft) 97,09 %
23.03.2020 12:00 8,2 C 12,0 C 9,7 C 37 % 1033,6 hPa 0,0 l/m 1,00 h 0,00 h 744 W/m 18,0 km/h (3 Bft) 97,48 %
23.03.2020 13:00 9,4 C 13,1 C 12,2 C 35 % 1033,2 hPa 0,0 l/m 1,00 h 0,00 h 730 W/m 13,7 km/h (3 Bft) 96,50 %
23.03.2020 14:00 10,1 C 13,4 C 10,3 C 34 % 1032,6 hPa 0,0 l/m 1,00 h 0,00 h 658 W/m 17,5 km/h (3 Bft) 95,86 %
23.03.2020 15:00 10,6 C 13,2 C 10,8 C 33 % 1032,1 hPa 0,0 l/m 1,00 h 0,00 h 536 W/m 17,9 km/h (3 Bft) 96,94 %
23.03.2020 16:00 10,4 C 12,0 C 11,1 C 32 % 1031,8 hPa 0,0 l/m 0,97 h 0,00 h 375 W/m 20,1 km/h (4 Bft) 96,37 %
23.03.2020 17:00 9,7 C 9,0 C 8,2 C 35 % 1031,8 hPa 0,0 l/m 0,00 h 0,00 h 43 W/m 12,9 km/h (3 Bft) 96,51 %
23.03.2020 18:00 8,6 C 7,5 C 6,8 C 39 % 1032,0 hPa 0,0 l/m 0,00 h 0,00 h 18 W/m 5,3 km/h (1 Bft) 95,25 %
23.03.2020 19:00 7,5 C 6,4 C 5,6 C 38 % 1032,1 hPa 0,0 l/m 0,00 h 0,00 h 0 W/m 6,1 km/h (2 Bft) 99,48 %
23.03.2020 20:00 6,5 C 5,6 C 4,7 C 41 % 1032,1 hPa 0,0 l/m 0,00 h 0,00 h 0 W/m 3,1 km/h (1 Bft) 96,45 %
23.03.2020 21:00 5,3 C 3,7 C 2,8 C 47 % 1032,4 hPa 0,0 l/m 0,00 h 0,00 h 0 W/m 0,8 km/h (0 Bft) 96,84 %
23.03.2020 22:00 4,1 C 2,8 C 1,5 C 49 % 1032,7 hPa 0,0 l/m 0,00 h 0,00 h 0 W/m 0,0 km/h (0 Bft) 97,17 %
23.03.2020 23:00 3,4 C 2,7 C 1,8 C 52 % 1032,5 hPa 0,0 l/m 0,00 h 0,00 h 0 W/m 8,4 km/h (2 Bft) 98,20 %
24.03.2020 00:00 3,7 C 2,9 C 2,1 C 51 % 1032,1 hPa 0,0 l/m 0,00 h 0,00 h 0 W/m 8,8 km/h (2 Bft) 92,61 %
24.03.2020 01:00 3,1 C 2,2 C 1,7 C 53 % 1032,1 hPa 0,0 l/m 0,00 h 0,00 h 0 W/m 7,1 km/h (2 Bft) 97,77 %
24.03.2020 02:00 2,8 C 2,1 C 1,5 C 53 % 1032,1 hPa 0,0 l/m 0,00 h 0,00 h 0 W/m 8,9 km/h (2 Bft) 99,71 %
24.03.2020 03:00 2,2 C 1,3 C 0,8 C 56 % 1032,4 hPa 0,0 l/m 0,00 h 0,00 h 0 W/m 2,3 km/h (1 Bft) 95,65 %
24.03.2020 04:00 1,7 C 1,0 C 0,4 C 58 % 1032,4 hPa 0,0 l/m 0,00 h 0,00 h 0 W/m 1,7 km/h (1 Bft) 97,63 %
24.03.2020 05:00 1,6 C 0,8 C 0,1 C 59 % 1032,1 hPa 0,0 l/m 0,00 h 0,00 h 0 W/m 6,8 km/h (2 Bft) 94,85 %
24.03.2020 06:00 1,2 C 0,6 C 0,0 C 59 % 1032,4 hPa 0,0 l/m 0,00 h 0,00 h 10 W/m 4,9 km/h (1 Bft) 96,90 %
24.03.2020 07:00 1,6 C 1,3 C 0,6 C 58 % 1032,8 hPa 0,0 l/m 0,00 h 0,00 h 27 W/m 10,2 km/h (2 Bft) 99,43 %
24.03.2020 08:00 2,9 C 3,8 C 1,9 C 54 % 1033,1 hPa 0,0 l/m 0,33 h 0,00 h 153 W/m 21,0 km/h (4 Bft) 95,81 %
24.03.2020 09:00 5,1 C 8,5 C 8,2 C 48 % 1033,2 hPa 0,0 l/m 1,00 h 0,00 h 469 W/m 22,6 km/h (4 Bft) 96,61 %
24.03.2020 10:00 6,5 C 9,9 C 5,4 C 44 % 1033,1 hPa 0,0 l/m 1,00 h 0,00 h 603 W/m 25,9 km/h (4 Bft) 97,27 %
24.03.2020 11:00 7,8 C 11,8 C 6,9 C 42 % 1032,9 hPa 0,0 l/m 1,00 h 0,00 h 704 W/m 20,1 km/h (4 Bft) 96,22 %
24.03.2020 12:00 9,2 C 13,1 C 10,6 C 38 % 1032,2 hPa 0,0 l/m 1,00 h 0,00 h 748 W/m 23,2 km/h (4 Bft) 99,26 %
24.03.2020 13:00 10,0 C 13,5 C 13,1 C 35 % 1031,6 hPa 0,0 l/m 1,00 h 0,00 h 735 W/m 24,8 km/h (4 Bft) 98,50 %
24.03.2020 14:00 10,8 C 14,3 C 11,0 C 33 % 1030,9 hPa 0,0 l/m 1,00 h 0,00 h 668 W/m 21,0 km/h (4 Bft) 96,23 %
24.03.2020 15:00 11,6 C 14,7 C 11,9 C 33 % 1030,1 hPa 0,0 l/m 1,00 h 0,00 h 549 W/m 17,4 km/h (3 Bft) 99,15 %
24.03.2020 16:00 11,6 C 13,5 C 12,4 C 32 % 1029,5 hPa 0,0 l/m 1,00 h 0,00 h 386 W/m 21,7 km/h (4 Bft) 96,51 %
24.03.2020 17:00 10,6 C 9,7 C 9,0 C 34 % 1029,4 hPa 0,0 l/m 0,00 h 0,00 h 44 W/m 19,3 km/h (3 Bft) 96,35 %
24.03.2020 18:00 9,6 C 8,5 C 7,8 C 36 % 1029,6 hPa 0,0 l/m 0,00 h 0,00 h 20 W/m 12,2 km/h (2 Bft) 98,49 %
24.03.2020 19:00 8,4 C 7,1 C 6,3 C 38 % 1029,8 hPa 0,0 l/m 0,00 h 0,00 h 1 W/m 8,3 km/h (2 Bft) 96,30 %
24.03.2020 20:00 7,4 C 6,5 C 5,7 C 39 % 1029,8 hPa 0,0 l/m 0,00 h 0,00 h 0 W/m 10,7 km/h (2 Bft) 94,97 %
24.03.2020 21:00 6,7 C 5,6 C 4,7 C 40 % 1029,9 hPa 0,0 l/m 0,00 h 0,00 h 0 W/m 4,7 km/h (1 Bft) 96,31 %
24.03.2020 22:00 5,9 C 4,7 C 3,8 C 42 % 1029,9 hPa 0,0 l/m 0,00 h 0,00 h 0 W/m 4,3 km/h (1 Bft) 97,87 %
24.03.2020 23:00 4,6 C 3,6 C 2,8 C 47 % 1029,6 hPa 0,0 l/m 0,00 h 0,00 h 0 W/m 1,3 km/h (1 Bft) 97,65 %
25.03.2020 00:00 4,1 C 3,3 C 2,3 C 49 % 1029,4 hPa 0,0 l/m 0,00 h 0,00 h 0 W/m 4,4 km/h (1 Bft) 96,17 %
25.03.2020 01:00 3,7 C 2,7 C 1,9 C 51 % 1029,1 hPa 0,0 l/m 0,00 h 0,00 h 0 W/m 3,1 km/h (1 Bft) 94,94 %
25.03.2020 02:00 3,0 C 2,2 C 1,3 C 52 % 1029,1 hPa 0,0 l/m 0,00 h 0,00 h 0 W/m 0,0 km/h (0 Bft) 98,86 %
25.03.2020 03:00 2,7 C 1,9 C 0,9 C 53 % 1028,9 hPa 0,0 l/m 0,00 h 0,00 h 0 W/m 1,2 km/h (1 Bft) 98,47 %
25.03.2020 04:00 1,8 C 0,1 C -1,0 C 56 % 1028,9 hPa 0,0 l/m 0,00 h 0,00 h 0 W/m 0,7 km/h (0 Bft) 94,95 %
25.03.2020 05:00 0,9 C -0,2 C -1,4 C 58 % 1028,8 hPa 0,0 l/m 0,00 h 0,00 h 0 W/m 0,6 km/h (0 Bft) 99,07 %
25.03.2020 06:00 0,3 C -1,0 C -2,4 C 59 % 1028,8 hPa 0,0 l/m 0,00 h 0,00 h 11 W/m 0,0 km/h (0 Bft) 98,00 %
25.03.2020 07:00 -0,3 C -0,6 C -2,2 C 62 % 1029,0 hPa 0,0 l/m 0,00 h 0,00 h 27 W/m 0,0 km/h (0 Bft) 96,05 %
25.03.2020 08:00 2,2 C 4,8 C 1,6 C 55 % 1029,1 hPa 0,0 l/m 0,37 h 0,00 h 165 W/m 2,9 km/h (1 Bft) 96,65 %
25.03.2020 09:00 6,1 C 10,4 C 9,5 C 44 % 1028,9 hPa 0,0 l/m 1,00 h 0,00 h 480 W/m 14,9 km/h (3 Bft) 98,15 %
25.03.2020 10:00 8,1 C 13,5 C 6,8 C 41 % 1028,6 hPa 0,0 l/m 1,00 h 0,00 h 621 W/m 10,4 km/h (2 Bft) 98,79 %
25.03.2020 11:00 10,4 C 16,9 C 9,1 C 39 % 1027,9 hPa 0,0 l/m 1,00 h 0,00 h 717 W/m 8,6 km/h (2 Bft) 97,37 %
25.03.2020 12:00 12,2 C 18,5 C 13,8 C 38 % 1027,1 hPa 0,0 l/m 1,00 h 0,00 h 754 W/m 9,1 km/h (2 Bft) 97,09 %
25.03.2020 13:00 13,4 C 19,2 C 18,0 C 36 % 1025,9 hPa 0,0 l/m 1,00 h 0,00 h 735 W/m 8,1 km/h (2 Bft) 97,65 %
25.03.2020 14:00 13,9 C 18,5 C 13,9 C 36 % 1025,2 hPa 0,0 l/m 1,00 h 0,00 h 665 W/m 10,1 km/h (2 Bft) 98,01 %
25.03.2020 15:00 13,8 C 17,5 C 14,2 C 36 % 1024,4 hPa 0,0 l/m 1,00 h 0,00 h 548 W/m 10,0 km/h (2 Bft) 99,15 %
25.03.2020 16:00 13,1 C 14,5 C 13,4 C 35 % 1023,9 hPa 0,0 l/m 0,83 h 0,00 h 330 W/m 11,7 km/h (2 Bft) 94,59 %
25.03.2020 17:00 11,2 C 10,4 C 9,4 C 38 % 1023,4 hPa 0,0 l/m 0,03 h 0,00 h 55 W/m 11,1 km/h (2 Bft) 98,50 %
25.03.2020 18:00 9,9 C 8,7 C 8,0 C 40 % 1023,1 hPa 0,0 l/m 0,20 h 0,00 h 25 W/m 8,3 km/h (2 Bft) 98,17 %
25.03.2020 19:00 8,7 C 7,6 C 6,8 C 41 % 1023,2 hPa 0,0 l/m 0,00 h 0,00 h 5 W/m 8,3 km/h (2 Bft) 98,50 %
25.03.2020 20:00 8,1 C 7,1 C 6,1 C 40 % 1023,5 hPa 0,0 l/m 0,00 h 0,00 h 0 W/m 9,3 km/h (2 Bft) 94,92 %
25.03.2020 21:00 7,2 C 6,0 C 5,3 C 48 % 1023,9 hPa 0,0 l/m 0,00 h 0,00 h 0 W/m 7,0 km/h (2 Bft) 99,50 %
25.03.2020 22:00 6,0 C 4,6 C 3,8 C 52 % 1024,3 hPa 0,0 l/m 0,00 h 0,00 h 0 W/m 4,2 km/h (1 Bft) 97,08 %
25.03.2020 23:00 4,7 C 3,2 C 2,3 C 51 % 1024,3 hPa 0,0 l/m 0,00 h 0,00 h 0 W/m 1,3 km/h (1 Bft) 94,93 %
26.03.2020 00:00 3,3 C 1,8 C 0,9 C 55 % 1024,1 hPa 0,0 l/m 0,00 h 0,00 h 0 W/m 0,7 km/h (0 Bft) 93,78 %
26.03.2020 01:00 2,4 C 1,0 C -0,0 C 57 % 1023,9 hPa 0,0 l/m 0,00 h 0,00 h 0 W/m 0,1 km/h (0 Bft) 95,77 %
26.03.2020 02:00 1,5 C 0,6 C -0,3 C 61 % 1023,6 hPa 0,0 l/m 0,00 h 0,00 h 0 W/m 1,4 km/h (1 Bft) 96,02 %
26.03.2020 03:00 1,1 C 0,1 C -0,5 C 64 % 1023,2 hPa 0,0 l/m 0,00 h 0,00 h 0 W/m 3,1 km/h (1 Bft) 94,80 %
26.03.2020 04:00 0,7 C -0,2 C -0,8 C 66 % 1023,0 hPa 0,0 l/m 0,00 h 0,00 h 0 W/m 3,1 km/h (1 Bft) 94,56 %
26.03.2020 05:00 0,5 C -0,6 C -0,9 C 67 % 1023,0 hPa 0,0 l/m 0,00 h 0,00 h 0 W/m 1,4 km/h (1 Bft) 95,86 %
26.03.2020 06:00 0,2 C -0,6 C -1,1 C 67 % 1023,2 hPa 0,0 l/m 0,00 h 0,00 h 12 W/m 1,0 km/h (0 Bft) 95,55 %
26.03.2020 07:00 0,5 C 0,4 C -0,3 C 67 % 1023,5 hPa 0,0 l/m 0,00 h 0,00 h 31 W/m 5,4 km/h (1 Bft) 95,39 %
26.03.2020 08:00 2,2 C 4,2 C 1,7 C 63 % 1023,3 hPa 0,0 l/m 0,40 h 0,00 h 171 W/m 9,8 km/h (2 Bft) 97,30 %
26.03.2020 09:00 5,9 C 10,9 C 10,0 C 55 % 1023,0 hPa 0,0 l/m 1,00 h 0,00 h 470 W/m 9,1 km/h (2 Bft) 98,22 %
26.03.2020 10:00 8,3 C 13,4 C 7,3 C 49 % 1022,9 hPa 0,0 l/m 1,00 h 0,00 h 607 W/m 13,3 km/h (3 Bft) 97,72 %
26.03.2020 11:00 10,2 C 15,8 C 9,3 C 46 % 1022,5 hPa 0,0 l/m 1,00 h 0,00 h 696 W/m 12,5 km/h (3 Bft) 99,22 %
26.03.2020 12:00 11,6 C 16,9 C 13,3 C 45 % 1021,9 hPa 0,0 l/m 1,00 h 0,00 h 741 W/m 12,1 km/h (2 Bft) 98,16 %
26.03.2020 13:00 12,4 C 17,2 C 16,6 C 43 % 1021,5 hPa 0,0 l/m 1,00 h 0,00 h 725 W/m 13,3 km/h (3 Bft) 97,86 %
26.03.2020 14:00 12,8 C 16,7 C 13,2 C 43 % 1021,2 hPa 0,0 l/m 1,00 h 0,00 h 650 W/m 13,6 km/h (3 Bft) 97,86 %
26.03.2020 15:00 12,9 C 16,1 C 13,4 C 44 % 1021,0 hPa 0,0 l/m 1,00 h 0,00 h 525 W/m 15,5 km/h (3 Bft) 96,58 %
26.03.2020 16:00 12,4 C 14,3 C 12,8 C 46 % 1020,8 hPa 0,0 l/m 1,00 h 0,00 h 363 W/m 14,4 km/h (3 Bft) 98,15 %
26.03.2020 17:00 11,1 C 10,3 C 9,4 C 49 % 1020,8 hPa 0,0 l/m 0,03 h 0,00 h 58 W/m 14,6 km/h (3 Bft) 97,25 %
26.03.2020 18:00 9,9 C 8,7 C 8,0 C 52 % 1021,0 hPa 0,0 l/m 0,00 h 0,00 h 21 W/m 9,4 km/h (2 Bft) 98,45 %
26.03.2020 19:00 8,6 C 7,2 C 6,6 C 57 % 1021,5 hPa 0,0 l/m 0,00 h 0,00 h 0 W/m 6,1 km/h (2 Bft) 97,00 %
26.03.2020 20:00 7,4 C 6,1 C 5,3 C 61 % 1021,8 hPa 0,0 l/m 0,00 h 0,00 h 0 W/m 4,6 km/h (1 Bft) 95,01 %
26.03.2020 21:00 6,4 C 5,1 C 4,2 C 65 % 1021,9 hPa 0,0 l/m 0,00 h 0,00 h 0 W/m 1,9 km/h (1 Bft) 98,01 %
26.03.2020 22:00 5,7 C 4,7 C 3,7 C 67 % 1021,5 hPa 0,0 l/m 0,00 h 0,00 h 0 W/m 2,8 km/h (1 Bft) 99,43 %
26.03.2020 23:00 5,7 C 4,8 C 4,1 C 68 % 1021,3 hPa 0,0 l/m 0,00 h 0,00 h 0 W/m 4,5 km/h (1 Bft) 96,02 %
27.03.2020 00:00 5,3 C 4,1 C 3,5 C 69 % 1021,2 hPa 0,0 l/m 0,00 h 0,00 h 0 W/m 4,4 km/h (1 Bft) 98,03 %
27.03.2020 01:00 4,8 C 3,8 C 3,1 C 70 % 1021,1 hPa 0,0 l/m 0,00 h 0,00 h 0 W/m 2,2 km/h (1 Bft) 98,64 %
27.03.2020 02:00 4,5 C 3,7 C 2,8 C 71 % 1020,7 hPa 0,0 l/m 0,00 h 0,00 h 0 W/m 4,5 km/h (1 Bft) 97,15 %
27.03.2020 03:00 4,0 C 2,9 C 2,2 C 72 % 1020,7 hPa 0,0 l/m 0,00 h 0,00 h 0 W/m 1,7 km/h (1 Bft) 97,35 %
27.03.2020 04:00 3,4 C 2,3 C 1,8 C 74 % 1020,5 hPa 0,0 l/m 0,00 h 0,00 h 0 W/m 1,2 km/h (1 Bft) 96,75 %
27.03.2020 05:00 3,1 C 2,2 C 1,7 C 75 % 1020,1 hPa 0,0 l/m 0,00 h 0,00 h 0 W/m 3,4 km/h (1 Bft) 97,15 %
27.03.2020 06:00 2,9 C 2,2 C 1,5 C 76 % 1020,3 hPa 0,0 l/m 0,00 h 0,00 h 13 W/m 1,3 km/h (1 Bft) 95,37 %
27.03.2020 07:00 3,4 C 3,6 C 2,6 C 76 % 1020,3 hPa 0,0 l/m 0,00 h 0,00 h 46 W/m 4,1 km/h (1 Bft) 97,37 %
27.03.2020 08:00 5,0 C 6,8 C 4,5 C 71 % 1020,0 hPa 0,0 l/m 0,43 h 0,00 h 178 W/m 10,1 km/h (2 Bft) 96,01 %
27.03.2020 09:00 7,9 C 12,7 C 11,6 C 64 % 1020,2 hPa 0,0 l/m 1,00 h 0,00 h 421 W/m 9,2 km/h (2 Bft) 99,43 %
27.03.2020 10:00 10,6 C 16,2 C 10,0 C 58 % 1020,0 hPa 0,0 l/m 1,00 h 0,00 h 557 W/m 10,1 km/h (2 Bft) 96,37 %
27.03.2020 11:00 12,9 C 18,6 C 12,0 C 53 % 1019,6 hPa 0,0 l/m 1,00 h 0,00 h 655 W/m 9,6 km/h (2 Bft) 99,72 %
27.03.2020 12:00 14,6 C 19,8 C 16,0 C 50 % 1019,1 hPa 0,0 l/m 1,00 h 0,00 h 700 W/m 11,6 km/h (2 Bft) 97,49 %
27.03.2020 13:00 15,7 C 20,2 C 19,3 C 49 % 1018,7 hPa 0,0 l/m 1,00 h 0,00 h 681 W/m 12,4 km/h (3 Bft) 98,31 %
27.03.2020 14:00 16,5 C 20,6 C 16,9 C 48 % 1018,4 hPa 0,0 l/m 1,00 h 0,00 h 605 W/m 10,8 km/h (2 Bft) 98,36 %
27.03.2020 15:00 17,4 C 20,7 C 17,6 C 47 % 1017,9 hPa 0,0 l/m 1,00 h 0,00 h 488 W/m 10,2 km/h (2 Bft) 96,08 %
27.03.2020 16:00 17,6 C 19,3 C 17,5 C 47 % 1017,5 hPa 0,0 l/m 1,00 h 0,00 h 328 W/m 9,2 km/h (2 Bft) 98,57 %
27.03.2020 17:00 16,5 C 15,7 C 14,4 C 49 % 1017,5 hPa 0,0 l/m 0,07 h 0,00 h 81 W/m 7,6 km/h (2 Bft) 96,07 %
27.03.2020 18:00 15,1 C 13,6 C 12,6 C 52 % 1017,9 hPa 0,0 l/m 0,00 h 0,00 h 25 W/m 7,0 km/h (2 Bft) 97,20 %
27.03.2020 19:00 13,3 C 11,6 C 10,5 C 56 % 1018,5 hPa 0,0 l/m 0,00 h 0,00 h 0 W/m 2,9 km/h (1 Bft) 97,01 %
27.03.2020 20:00 12,1 C 10,7 C 9,5 C 60 % 1018,9 hPa 0,0 l/m 0,00 h 0,00 h 0 W/m 3,7 km/h (1 Bft) 96,21 %
27.03.2020 21:00 11,7 C 10,7 C 9,7 C 61 % 1019,2 hPa 0,0 l/m 0,00 h 0,00 h 0 W/m 5,8 km/h (2 Bft) 98,27 %
27.03.2020 22:00 11,1 C 9,9 C 8,9 C 62 % 1019,7 hPa 0,0 l/m 0,00 h 0,00 h 0 W/m 4,8 km/h (1 Bft) 95,84 %
27.03.2020 23:00 10,4 C 9,1 C 8,1 C 64 % 1019,9 hPa 0,0 l/m 0,00 h 0,00 h 0 W/m 4,8 km/h (1 Bft) 96,94 %
28.03.2020 00:00 9,6 C 8,1 C 7,0 C 66 % 1019,9 hPa 0,0 l/m 0,00 h 0,00 h 0 W/m 2,2 km/h (1 Bft) 93,01 %
28.03.2020 01:00 8,7 C 6,8 C 5,3 C 67 % 1020,0 hPa 0,0 l/m 0,00 h 0,00 h 0 W/m 0,0 km/h (0 Bft) 99,64 %
28.03.2020 02:00 7,4 C 5,7 C 4,0 C 70 % 1020,1 hPa 0,0 l/m 0,00 h 0,00 h 0 W/m 0,0 km/h (0 Bft) 98,01 %
28.03.2020 03:00 6,5 C 5,7 C 4,1 C 75 % 1020,2 hPa 0,0 l/m 0,00 h 0,00 h 0 W/m 1,1 km/h (0 Bft) 95,58 %
28.03.2020 04:00 6,3 C 5,2 C 3,6 C 76 % 1020,3 hPa 0,0 l/m 0,00 h 0,00 h 0 W/m 0,0 km/h (0 Bft) 98,58 %
28.03.2020 05:00 5,8 C 4,9 C 3,3 C 78 % 1020,4 hPa 0,0 l/m 0,00 h 0,00 h 0 W/m 1,4 km/h (1 Bft) 98,93 %
28.03.2020 06:00 5,7 C 5,4 C 4,1 C 80 % 1020,9 hPa 0,0 l/m 0,00 h 0,00 h 15 W/m 3,5 km/h (1 Bft) 97,24 %
28.03.2020 07:00 6,2 C 6,1 C 5,2 C 80 % 1021,2 hPa 0,0 l/m 0,00 h 0,00 h 46 W/m 3,9 km/h (1 Bft) 96,80 %
28.03.2020 08:00 7,4 C 9,4 C 6,9 C 78 % 1021,7 hPa 0,0 l/m 0,47 h 0,00 h 181 W/m 5,2 km/h (1 Bft) 95,73 %
28.03.2020 09:00 10,0 C 14,4 C 13,6 C 69 % 1022,3 hPa 0,0 l/m 1,00 h 0,00 h 421 W/m 10,4 km/h (2 Bft) 98,72 %
28.03.2020 10:00 12,1 C 17,0 C 11,5 C 63 % 1022,6 hPa 0,0 l/m 1,00 h 0,00 h 555 W/m 13,3 km/h (3 Bft) 97,58 %
28.03.2020 11:00 14,4 C 20,0 C 13,5 C 55 % 1022,6 hPa 0,0 l/m 1,00 h 0,00 h 655 W/m 13,6 km/h (3 Bft) 97,34 %
28.03.2020 12:00 15,9 C 21,3 C 17,5 C 48 % 1022,6 hPa 0,0 l/m 1,00 h 0,00 h 706 W/m 14,5 km/h (3 Bft) 98,97 %
28.03.2020 13:00 16,7 C 21,3 C 20,2 C 46 % 1022,5 hPa 0,0 l/m 1,00 h 0,00 h 694 W/m 16,6 km/h (3 Bft) 97,51 %
28.03.2020 14:00 16,5 C 20,4 C 16,4 C 48 % 1022,3 hPa 0,0 l/m 1,00 h 0,00 h 619 W/m 18,4 km/h (3 Bft) 97,58 %
28.03.2020 15:00 16,2 C 19,4 C 16,3 C 48 % 1022,0 hPa 0,0 l/m 1,00 h 0,00 h 508 W/m 18,2 km/h (3 Bft) 96,87 %
28.03.2020 16:00 15,5 C 17,4 C 15,9 C 51 % 1021,9 hPa 0,0 l/m 1,00 h 0,00 h 358 W/m 22,4 km/h (4 Bft) 98,29 %
28.03.2020 17:00 13,2 C 12,3 C 11,5 C 53 % 1022,0 hPa 0,0 l/m 0,10 h 0,00 h 74 W/m 24,2 km/h (4 Bft) 98,58 %
28.03.2020 18:00 11,1 C 9,9 C 9,5 C 63 % 1022,7 hPa 0,0 l/m 0,00 h 0,00 h 23 W/m 23,1 km/h (4 Bft) 96,83 %
28.03.2020 19:00 9,3 C 7,9 C 7,7 C 67 % 1023,7 hPa 0,0 l/m 0,00 h 0,00 h 4 W/m 20,2 km/h (4 Bft) 94,95 %
28.03.2020 20:00 7,8 C 6,7 C 6,3 C 72 % 1024,6 hPa 0,0 l/m 0,00 h 0,00 h 0 W/m 22,2 km/h (4 Bft) 99,01 %
28.03.2020 21:00 6,7 C 5,6 C 5,3 C 72 % 1025,3 hPa 0,0 l/m 0,00 h 0,00 h 0 W/m 21,9 km/h (4 Bft) 98,64 %
28.03.2020 22:00 5,7 C 4,6 C 4,1 C 74 % 1025,9 hPa 0,0 l/m 0,00 h 0,00 h 0 W/m 15,7 km/h (3 Bft) 97,08 %
28.03.2020 23:00 4,9 C 3,8 C 3,5 C 79 % 1026,2 hPa 0,0 l/m 0,00 h 0,00 h 0 W/m 16,1 km/h (3 Bft) 96,80 %
29.03.2020 00:00 4,4 C 3,5 C 3,2 C 80 % 1026,4 hPa 0,0 l/m 0,00 h 0,00 h 0 W/m 9,5 km/h (2 Bft) 96,29 %
29.03.2020 01:00 3,8 C 2,4 C 2,2 C 79 % 1026,5 hPa 0,0 l/m 0,00 h 0,00 h 0 W/m 8,0 km/h (2 Bft) 93,78 %
29.03.2020 03:00 2,7 C 1,2 C 1,2 C 81 % 1026,2 hPa 0,0 l/m 0,00 h 0,00 h 0 W/m 3,0 km/h (1 Bft) 97,31 %
29.03.2020 04:00 2,1 C 1,2 C 1,3 C 83 % 1025,8 hPa 0,0 l/m 0,00 h 0,00 h 0 W/m 2,8 km/h (1 Bft) 97,93 %
29.03.2020 05:00 2,4 C 2,0 C 1,9 C 84 % 1025,7 hPa 0,0 l/m 0,00 h 0,00 h 0 W/m 10,4 km/h (2 Bft) 95,09 %
29.03.2020 06:00 2,6 C 1,5 C 1,3 C 85 % 1025,8 hPa 0,0 l/m 0,00 h 0,00 h 0 W/m 10,8 km/h (2 Bft) 97,18 %
29.03.2020 07:00 2,0 C 1,1 C 0,7 C 88 % 1025,9 hPa 0,0 l/m 0,00 h 0,00 h 13 W/m 9,3 km/h (2 Bft) 98,36 %
29.03.2020 08:00 2,7 C 3,0 C 2,4 C 87 % 1026,3 hPa 0,0 l/m 0,00 h 0,00 h 48 W/m 18,7 km/h (3 Bft) 95,39 %
29.03.2020 09:00 4,5 C 5,4 C 4,6 C 79 % 1027,0 hPa 0,0 l/m 0,17 h 0,00 h 145 W/m 15,1 km/h (3 Bft) 95,59 %
29.03.2020 10:00 5,5 C 6,2 C 5,9 C 71 % 1027,4 hPa 0,0 l/m 0,13 h 0,00 h 171 W/m 21,5 km/h (4 Bft) 98,29 %
29.03.2020 11:00 5,3 C 5,2 C 4,9 C 72 % 1027,9 hPa 0,0 l/m 0,00 h 0,00 h 150 W/m 23,5 km/h (4 Bft) 97,56 %
29.03.2020 12:00 4,9 C 5,1 C 4,9 C 78 % 1028,4 hPa 0,0 l/m 0,10 h 0,17 h 217 W/m 23,1 km/h (4 Bft) 95,79 %
29.03.2020 13:00 4,2 C 3,9 C 3,6 C 84 % 1028,9 hPa 0,0 l/m 0,00 h 0,67 h 176 W/m 22,2 km/h (4 Bft) 95,77 %
29.03.2020 14:00 3,3 C 2,8 C 2,5 C 87 % 1029,3 hPa 0,0 l/m 0,00 h 0,60 h 96 W/m 22,5 km/h (4 Bft) 97,87 %
29.03.2020 15:00 3,8 C 4,1 C 3,4 C 89 % 1029,6 hPa 0,0 l/m 0,13 h 0,23 h 203 W/m 19,7 km/h (3 Bft) 97,37 %
29.03.2020 16:00 3,7 C 3,4 C 2,8 C 89 % 1030,0 hPa 0,0 l/m 0,03 h 0,90 h 176 W/m 20,5 km/h (4 Bft) 94,50 %
29.03.2020 17:00 3,4 C 3,1 C 2,8 C 92 % 1030,3 hPa 0,0 l/m 0,10 h 0,40 h 138 W/m 7,4 km/h (2 Bft) 98,79 %
29.03.2020 18:00 3,7 C 3,2 C 2,4 C 88 % 1030,6 hPa 0,0 l/m 0,00 h 0,00 h 41 W/m 13,8 km/h (3 Bft) 98,57 %
29.03.2020 19:00 4,0 C 3,4 C 2,8 C 76 % 1031,3 hPa 0,0 l/m 0,00 h 0,00 h 17 W/m 10,5 km/h (2 Bft) 94,97 %
29.03.2020 20:00 3,8 C 3,3 C 2,7 C 73 % 1032,2 hPa 0,0 l/m 0,00 h 0,00 h 0 W/m 6,8 km/h (2 Bft) 96,25 %
29.03.2020 21:00 3,8 C 3,1 C 2,5 C 66 % 1033,0 hPa 0,0 l/m 0,00 h 0,00 h 0 W/m 10,9 km/h (2 Bft) 99,36 %
29.03.2020 22:00 2,9 C 1,8 C 1,2 C 60 % 1033,8 hPa 0,0 l/m 0,00 h 0,00 h 0 W/m 15,6 km/h (3 Bft) 96,30 %
29.03.2020 23:00 1,5 C 0,3 C -0,2 C 61 % 1034,2 hPa 0,0 l/m 0,00 h 0,00 h 0 W/m 7,6 km/h (2 Bft) 98,15 %
Min-Datum _ 25.03.20 25.03.20 25.03.20 24.03.20 27.03.20 - - - - 23.03.20 23.03.20
_ Min-Zeit 07:40 06:50 06:20 15:44 16:44 - - - - 02:26 00:02
Minimum _ -0,4 C -1,7 C -2,8 C 30 % 1017,4 hPa - - - - 0,0 km/h (0 Bft) 11,11 %
Max-Datum _ 27.03.20 28.03.20 28.03.20 29.03.20 23.03.20 23.03.20 23.03.20 29.03.20 25.03.20 23.03.20 23.03.20
_ Max-Zeit 15:48 12:58 13:00 17:50 08:44 00:00 08:44 12:38 12:30 08:58 01:16
Maximum _ 17,8 C 22,8 C 23,9 C 94 % 1034,3 hPa 0,0 l/m 0,07 h 0,03 h 763 W/m 54,7 km/h
S-SO (7 Bft)
100,00 %
Durchschnitt _ 6,9 C 7,5 C 6,0 C 57 % 1026,2 hPa #0,0 l/m #51:14 h #2:58 h 336 W/m 10,7 km/h (2 Bft) 97,04 %
© 2020 W. Hausmann